Wan Hai 510 — 9VJJ8 — position and weather

sailwx.info

Track history (hours):
 
Tides and Currents Weather Stations Pressure Air Temp Water Temp Dewpoint Dewpoint Depression Visibility Wind Speed Wind Dir Waves Ship Positions

Wan Hai 510

Last reported at 2017-Nov-14 05:23 UTC. Time now 2017-Nov-22 16:43 UTC.
Position N 01°17' E 103°23'.
Warning: this ship's position is 8 days out of date.

Length 269 m; draft 10.9 m.

Type: Ship. MMSI: 565706755.

Date/timePositionNaut miles runAvg speedWind from/ knotsBaromVisibWave heightAir tempDewpointWater temp
2017-Nov-14 05:23N 01°17' E 103°23'719.7
2017-Nov-14 05:01N 01°13' E 103°29'1019.4
2017-Nov-14 04:30N 01°11' E 103°38'816.4
2017-Nov-14 04:00N 01°10' E 103°47'5 9.7
2017-Nov-14 03:31N 01°12' E 103°51'2 4.4
2017-Nov-14 03:01N 01°14' E 103°52'3 4.9
2017-Nov-14 02:26N 01°16' E 103°50'0 0.8
2017-Nov-14 01:59N 01°16' E 103°50'0 0.0
2017-Nov-14 01:26N 01°16' E 103°50'0 0.0
2017-Nov-14 00:56N 01°16' E 103°50'0 0.0
2017-Nov-14 00:26N 01°16' E 103°50'0 0.0
2017-Nov-13 23:59N 01°16' E 103°50'0 0.0
2017-Nov-13 23:26N 01°16' E 103°50'0 0.0
2017-Nov-13 22:56N 01°16' E 103°50'0 0.0
2017-Nov-13 22:26N 01°16' E 103°50'0 0.0
2017-Nov-13 21:56N 01°16' E 103°50'  
2017-Nov-10 09:59N 21°23' E 113°23'1021.0
2017-Nov-10 09:29N 21°31' E 113°31'1021.0
2017-Nov-10 09:00N 21°38' E 113°38'1021.0
2017-Nov-10 08:30N 21°46' E 113°46'1120.8
2017-Nov-10 07:59N 21°53' E 113°55'1021.1
2017-Nov-10 07:30N 21°59' E 114°03'1218.7
2017-Nov-10 06:52N 22°08' E 114°11'512.8
2017-Nov-10 06:30N 22°13' E 114°10'1012.1
2017-Nov-10 05:39N 22°22' E 114°04'213.9
2017-Nov-10 05:30N 22°21' E 114°02'713.9
2017-Nov-10 05:00N 22°22' E 113°54'5 9.1
2017-Nov-10 04:30N 22°27' E 113°53'1 1.0
2017-Nov-10 04:00N 22°27' E 113°54'0 0.0
2017-Nov-10 03:30N 22°27' E 113°54'0 0.0
2017-Nov-10 03:00N 22°27' E 113°54'0 0.0
2017-Nov-10 02:30N 22°27' E 113°54'0 0.0
2017-Nov-10 02:00N 22°27' E 113°54'0 0.0
2017-Nov-10 01:30N 22°27' E 113°54'0 0.1
2017-Nov-10 01:00N 22°27' E 113°54'0 0.1
2017-Nov-10 00:30N 22°27' E 113°54'0 0.0
2017-Nov-10 00:00N 22°27' E 113°54'0 0.1
2017-Nov-09 23:30N 22°27' E 113°54'0 0.0
2017-Nov-09 23:00N 22°27' E 113°54'0 0.1
2017-Nov-09 22:30N 22°27' E 113°54'0 0.0
2017-Nov-09 22:00N 22°27' E 113°54'0 0.0
2017-Nov-09 21:30N 22°27' E 113°54'0 0.0
2017-Nov-09 20:57N 22°27' E 113°54'0 0.0
2017-Nov-09 20:30N 22°27' E 113°54'0 0.1
2017-Nov-09 20:00N 22°27' E 113°54'0 0.0
2017-Nov-09 19:30N 22°27' E 113°54'0 0.1
2017-Nov-09 19:00N 22°27' E 113°54'0 0.0
2017-Nov-09 18:30N 22°27' E 113°54'0 0.0
2017-Nov-09 18:00N 22°27' E 113°54'0 0.0
2017-Nov-09 17:30N 22°27' E 113°54'0 0.0
2017-Nov-09 17:00N 22°27' E 113°54'1 1.2
2017-Nov-09 16:30N 22°27' E 113°53'4 7.2
2017-Nov-09 16:00N 22°23' E 113°54'4 8.6
2017-Nov-09 15:30N 22°21' E 113°58'8 0.7
2017-Nov-09 02:35N 22°19' E 114°07'1 9.5
2017-Nov-09 02:29N 22°19' E 114°06'713.6
2017-Nov-09 01:59N 22°13' E 114°10'3 7.2
2017-Nov-09 01:30N 22°10' E 114°12'4 8.7
2017-Nov-09 01:00N 22°08' E 114°16'511.0
2017-Nov-09 00:30N 22°08' E 114°22'816.3
2017-Nov-09 00:00N 22°10' E 114°31'1019.2
2017-Nov-08 23:30N 22°11' E 114°41'1019.2
2017-Nov-08 23:00N 22°11' E 114°51'919.0
2017-Nov-08 22:30N 22°12' E 115°02'1019.4
2017-Nov-08 22:00N 22°13' E 115°12'26319.5
2017-Nov-08 08:33N 22°32' E 119°56'320.0
2017-Nov-08 08:23N 22°32' E 119°59'719.8
2017-Nov-08 08:01N 22°32' E 120°07'917.0
2017-Nov-08 07:30N 22°33' E 120°17'3 5.0
2017-Nov-08 07:00N 22°33' E 120°19'1 2.6
2017-Nov-08 06:29N 22°35' E 120°18'0 0.0
2017-Nov-08 05:56N 22°35' E 120°18'0 0.0
2017-Nov-08 05:29N 22°35' E 120°18'0 0.0
2017-Nov-08 04:50N 22°35' E 120°18'0 0.0
2017-Nov-08 04:26N 22°35' E 120°18'0 0.0
2017-Nov-08 03:56N 22°35' E 120°18'0 0.0
2017-Nov-08 03:29N 22°35' E 120°18'0 0.0
2017-Nov-08 02:59N 22°35' E 120°18'0 0.0
2017-Nov-08 02:29N 22°35' E 120°18'0 0.0
2017-Nov-08 01:59N 22°35' E 120°18'0 0.0
2017-Nov-08 01:29N 22°35' E 120°18'0 0.0
2017-Nov-08 00:59N 22°35' E 120°18'0 0.0
2017-Nov-08 00:26N 22°35' E 120°18'0 0.0
2017-Nov-07 23:59N 22°35' E 120°18'0 0.0
2017-Nov-07 23:29N 22°35' E 120°18'0 0.0
2017-Nov-07 22:59N 22°35' E 120°18'0 0.0
2017-Nov-07 22:23N 22°35' E 120°18'0 0.0
2017-Nov-07 21:59N 22°35' E 120°18'0 0.0
2017-Nov-07 21:29N 22°35' E 120°18'0 0.0
2017-Nov-07 20:59N 22°35' E 120°18'0 0.0
2017-Nov-07 20:29N 22°35' E 120°18'0 0.0
2017-Nov-07 19:56N 22°35' E 120°18'0 0.0
2017-Nov-07 19:26N 22°35' E 120°18'0 0.0
2017-Nov-07 18:59N 22°35' E 120°18'0 0.0
2017-Nov-07 18:26N 22°35' E 120°18'0 0.0
2017-Nov-07 17:59N 22°35' E 120°18'0 0.0
2017-Nov-07 17:29N 22°35' E 120°18'0 0.0
2017-Nov-07 16:56N 22°35' E 120°18'0 0.0
2017-Nov-07 16:29N 22°35' E 120°18'0 0.0
2017-Nov-07 15:59N 22°35' E 120°18'0 0.0
2017-Nov-07 15:23N 22°35' E 120°18'0 0.0
2017-Nov-07 14:59N 22°35' E 120°18'0 0.1
2017-Nov-07 14:29N 22°35' E 120°18'0 0.1
2017-Nov-07 13:59N 22°35' E 120°18'0 0.0
2017-Nov-07 13:26N 22°35' E 120°18'0 0.0
2017-Nov-07 12:59N 22°35' E 120°18'0 0.0
2017-Nov-07 12:29N 22°35' E 120°18'0 0.0
2017-Nov-07 11:59N 22°35' E 120°18'0 0.0
2017-Nov-07 11:23N 22°35' E 120°18'0 0.0
2017-Nov-07 10:59N 22°35' E 120°18'0 0.0
2017-Nov-07 10:29N 22°35' E 120°18'0 0.0
2017-Nov-07 09:56N 22°35' E 120°18'0 0.0
2017-Nov-07 09:29N 22°35' E 120°18'0 0.0
2017-Nov-07 08:56N 22°35' E 120°18'0 0.0
2017-Nov-07 08:26N 22°35' E 120°18'0 0.0
2017-Nov-07 07:59N 22°35' E 120°18'0 0.0
2017-Nov-07 07:26N 22°35' E 120°18'0 0.0
2017-Nov-07 06:59N 22°35' E 120°18'0 0.0
2017-Nov-07 06:29N 22°35' E 120°18'0 0.0
2017-Nov-07 05:59N 22°35' E 120°18'0 0.0
2017-Nov-07 05:26N 22°35' E 120°18'0 0.0
2017-Nov-07 04:59N 22°35' E 120°18'0 0.0
2017-Nov-07 04:26N 22°35' E 120°18'0 0.0
2017-Nov-07 03:59N 22°35' E 120°18'0 0.0
2017-Nov-07 03:29N 22°35' E 120°18'0 0.0
2017-Nov-07 02:56N 22°35' E 120°18'0 0.0
2017-Nov-07 02:29N 22°35' E 120°18'0 0.0
2017-Nov-07 01:59N 22°35' E 120°18'0 0.0
2017-Nov-07 01:29N 22°35' E 120°18'0 0.5
2017-Nov-07 01:00N 22°34' E 120°18'2 3.5
2017-Nov-07 00:30N 22°33' E 120°17'1 2.9
2017-Nov-07 00:00N 22°32' E 120°16'1 1.3
2017-Nov-06 23:30N 22°32' E 120°15'1 2.9
2017-Nov-06 23:00N 22°31' E 120°14'0 0.8
2017-Nov-06 22:30N 22°31' E 120°14'2 3.2
2017-Nov-06 22:00N 22°31' E 120°12'3 5.2
2017-Nov-06 21:30N 22°28' E 120°11'510.6
2017-Nov-06 21:00N 22°23' E 120°09'918.0
2017-Nov-06 20:30N 22°16' E 120°04'  
Track history (hours):
 
Tides and Currents Weather Stations Pressure Air Temp Water Temp Dewpoint Dewpoint Depression Visibility Wind Speed Wind Dir Waves Ship Positions

Wan Hai 510

Last reported at 2017-Nov-14 05:23 UTC. Time now 2017-Nov-22 16:43 UTC.
Position N 01°17' E 103°23'.
Warning: this ship's position is 8 days out of date.

Length 269 m; draft 10.9 m.

Type: Ship. MMSI: 565706755.

Date/timePositionNaut miles runAvg speedWind from/ knotsBaromVisibWave heightAir tempDewpointWater temp
2017-Nov-14 05:23N 01°17' E 103°23'719.7
2017-Nov-14 05:01N 01°13' E 103°29'1019.4
2017-Nov-14 04:30N 01°11' E 103°38'816.4
2017-Nov-14 04:00N 01°10' E 103°47'5 9.7
2017-Nov-14 03:31N 01°12' E 103°51'2 4.4
2017-Nov-14 03:01N 01°14' E 103°52'3 4.9
2017-Nov-14 02:26N 01°16' E 103°50'0 0.8
2017-Nov-14 01:59N 01°16' E 103°50'0 0.0
2017-Nov-14 01:26N 01°16' E 103°50'0 0.0
2017-Nov-14 00:56N 01°16' E 103°50'0 0.0
2017-Nov-14 00:26N 01°16' E 103°50'0 0.0
2017-Nov-13 23:59N 01°16' E 103°50'0 0.0
2017-Nov-13 23:26N 01°16' E 103°50'0 0.0
2017-Nov-13 22:56N 01°16' E 103°50'0 0.0
2017-Nov-13 22:26N 01°16' E 103°50'0 0.0
2017-Nov-13 21:56N 01°16' E 103°50'  
2017-Nov-10 09:59N 21°23' E 113°23'1021.0
2017-Nov-10 09:29N 21°31' E 113°31'1021.0
2017-Nov-10 09:00N 21°38' E 113°38'1021.0
2017-Nov-10 08:30N 21°46' E 113°46'1120.8
2017-Nov-10 07:59N 21°53' E 113°55'1021.1
2017-Nov-10 07:30N 21°59' E 114°03'1218.7
2017-Nov-10 06:52N 22°08' E 114°11'512.8
2017-Nov-10 06:30N 22°13' E 114°10'1012.1
2017-Nov-10 05:39N 22°22' E 114°04'213.9
2017-Nov-10 05:30N 22°21' E 114°02'713.9
2017-Nov-10 05:00N 22°22' E 113°54'5 9.1
2017-Nov-10 04:30N 22°27' E 113°53'1 1.0
2017-Nov-10 04:00N 22°27' E 113°54'0 0.0
2017-Nov-10 03:30N 22°27' E 113°54'0 0.0
2017-Nov-10 03:00N 22°27' E 113°54'0 0.0
2017-Nov-10 02:30N 22°27' E 113°54'0 0.0
2017-Nov-10 02:00N 22°27' E 113°54'0 0.0
2017-Nov-10 01:30N 22°27' E 113°54'0 0.1
2017-Nov-10 01:00N 22°27' E 113°54'0 0.1
2017-Nov-10 00:30N 22°27' E 113°54'0 0.0
2017-Nov-10 00:00N 22°27' E 113°54'0 0.1
2017-Nov-09 23:30N 22°27' E 113°54'0 0.0
2017-Nov-09 23:00N 22°27' E 113°54'0 0.1
2017-Nov-09 22:30N 22°27' E 113°54'0 0.0
2017-Nov-09 22:00N 22°27' E 113°54'0 0.0
2017-Nov-09 21:30N 22°27' E 113°54'0 0.0
2017-Nov-09 20:57N 22°27' E 113°54'0 0.0
2017-Nov-09 20:30N 22°27' E 113°54'0 0.1
2017-Nov-09 20:00N 22°27' E 113°54'0 0.0
2017-Nov-09 19:30N 22°27' E 113°54'0 0.1
2017-Nov-09 19:00N 22°27' E 113°54'0 0.0
2017-Nov-09 18:30N 22°27' E 113°54'0 0.0
2017-Nov-09 18:00N 22°27' E 113°54'0 0.0
2017-Nov-09 17:30N 22°27' E 113°54'0 0.0
2017-Nov-09 17:00N 22°27' E 113°54'1 1.2
2017-Nov-09 16:30N 22°27' E 113°53'4 7.2
2017-Nov-09 16:00N 22°23' E 113°54'4 8.6
2017-Nov-09 15:30N 22°21' E 113°58'8 0.7
2017-Nov-09 02:35N 22°19' E 114°07'1 9.5
2017-Nov-09 02:29N 22°19' E 114°06'713.6
2017-Nov-09 01:59N 22°13' E 114°10'3 7.2
2017-Nov-09 01:30N 22°10' E 114°12'4 8.7
2017-Nov-09 01:00N 22°08' E 114°16'511.0
2017-Nov-09 00:30N 22°08' E 114°22'816.3
2017-Nov-09 00:00N 22°10' E 114°31'1019.2
2017-Nov-08 23:30N 22°11' E 114°41'1019.2
2017-Nov-08 23:00N 22°11' E 114°51'919.0
2017-Nov-08 22:30N 22°12' E 115°02'1019.4
2017-Nov-08 22:00N 22°13' E 115°12'26319.5
2017-Nov-08 08:33N 22°32' E 119°56'320.0
2017-Nov-08 08:23N 22°32' E 119°59'719.8
2017-Nov-08 08:01N 22°32' E 120°07'917.0
2017-Nov-08 07:30N 22°33' E 120°17'3 5.0
2017-Nov-08 07:00N 22°33' E 120°19'1 2.6
2017-Nov-08 06:29N 22°35' E 120°18'0 0.0
2017-Nov-08 05:56N 22°35' E 120°18'0 0.0
2017-Nov-08 05:29N 22°35' E 120°18'0 0.0
2017-Nov-08 04:50N 22°35' E 120°18'0 0.0
2017-Nov-08 04:26N 22°35' E 120°18'0 0.0
2017-Nov-08 03:56N 22°35' E 120°18'0 0.0
2017-Nov-08 03:29N 22°35' E 120°18'0 0.0
2017-Nov-08 02:59N 22°35' E 120°18'0 0.0
2017-Nov-08 02:29N 22°35' E 120°18'0 0.0
2017-Nov-08 01:59N 22°35' E 120°18'0 0.0
2017-Nov-08 01:29N 22°35' E 120°18'0 0.0
2017-Nov-08 00:59N 22°35' E 120°18'0 0.0
2017-Nov-08 00:26N 22°35' E 120°18'0 0.0
2017-Nov-07 23:59N 22°35' E 120°18'0 0.0
2017-Nov-07 23:29N 22°35' E 120°18'0 0.0
2017-Nov-07 22:59N 22°35' E 120°18'0 0.0
2017-Nov-07 22:23N 22°35' E 120°18'0 0.0
2017-Nov-07 21:59N 22°35' E 120°18'0 0.0
2017-Nov-07 21:29N 22°35' E 120°18'0 0.0
2017-Nov-07 20:59N 22°35' E 120°18'0 0.0
2017-Nov-07 20:29N 22°35' E 120°18'0 0.0
2017-Nov-07 19:56N 22°35' E 120°18'0 0.0
2017-Nov-07 19:26N 22°35' E 120°18'0 0.0
2017-Nov-07 18:59N 22°35' E 120°18'0 0.0
2017-Nov-07 18:26N 22°35' E 120°18'0 0.0
2017-Nov-07 17:59N 22°35' E 120°18'0 0.0
2017-Nov-07 17:29N 22°35' E 120°18'0 0.0
2017-Nov-07 16:56N 22°35' E 120°18'0 0.0
2017-Nov-07 16:29N 22°35' E 120°18'0 0.0
2017-Nov-07 15:59N 22°35' E 120°18'0 0.0
2017-Nov-07 15:23N 22°35' E 120°18'0 0.0
2017-Nov-07 14:59N 22°35' E 120°18'0 0.1
2017-Nov-07 14:29N 22°35' E 120°18'0 0.1
2017-Nov-07 13:59N 22°35' E 120°18'0 0.0
2017-Nov-07 13:26N 22°35' E 120°18'0 0.0
2017-Nov-07 12:59N 22°35' E 120°18'0 0.0
2017-Nov-07 12:29N 22°35' E 120°18'0 0.0
2017-Nov-07 11:59N 22°35' E 120°18'0 0.0
2017-Nov-07 11:23N 22°35' E 120°18'0 0.0
2017-Nov-07 10:59N 22°35' E 120°18'0 0.0
2017-Nov-07 10:29N 22°35' E 120°18'0 0.0
2017-Nov-07 09:56N 22°35' E 120°18'0 0.0
2017-Nov-07 09:29N 22°35' E 120°18'0 0.0
2017-Nov-07 08:56N 22°35' E 120°18'0 0.0
2017-Nov-07 08:26N 22°35' E 120°18'0 0.0
2017-Nov-07 07:59N 22°35' E 120°18'0 0.0
2017-Nov-07 07:26N 22°35' E 120°18'0 0.0
2017-Nov-07 06:59N 22°35' E 120°18'0 0.0
2017-Nov-07 06:29N 22°35' E 120°18'0 0.0
2017-Nov-07 05:59N 22°35' E 120°18'0 0.0
2017-Nov-07 05:26N 22°35' E 120°18'0 0.0
2017-Nov-07 04:59N 22°35' E 120°18'0 0.0
2017-Nov-07 04:26N 22°35' E 120°18'0 0.0
2017-Nov-07 03:59N 22°35' E 120°18'0 0.0
2017-Nov-07 03:29N 22°35' E 120°18'0 0.0
2017-Nov-07 02:56N 22°35' E 120°18'0 0.0
2017-Nov-07 02:29N 22°35' E 120°18'0 0.0
2017-Nov-07 01:59N 22°35' E 120°18'0 0.0
2017-Nov-07 01:29N 22°35' E 120°18'0 0.5
2017-Nov-07 01:00N 22°34' E 120°18'2 3.5
2017-Nov-07 00:30N 22°33' E 120°17'1 2.9
2017-Nov-07 00:00N 22°32' E 120°16'1 1.3
2017-Nov-06 23:30N 22°32' E 120°15'1 2.9
2017-Nov-06 23:00N 22°31' E 120°14'0 0.8
2017-Nov-06 22:30N 22°31' E 120°14'2 3.2
2017-Nov-06 22:00N 22°31' E 120°12'3 5.2
2017-Nov-06 21:30N 22°28' E 120°11'510.6
2017-Nov-06 21:00N 22°23' E 120°09'918.0
2017-Nov-06 20:30N 22°16' E 120°04'  

Dump ship's entire track history